Saxon, Washington
Current Conditions -  °F | °C
As of 5:53 PM on Friday 24 Oct 2014 (Local Time) from KBLI Reporting Station
Clear Clear  
Wind Chill: 52°   Ceiling: Unl
Heat Index: 52°   Visibility: 10mi
Dew Point: 43°   Wind: 8mph
Humidity: 71%   Direction: 10°N
Pressure: 29.91"   Gusts: NA
Location:  48.6897°N, 122.171°W
Report Text: KBLI 250053Z 01007KT 10SM CLR 11/06 A2991 RMK AO2 SLP134 T01110061
Loading
Personal Weather Stations






























Interactive Weather Map
Tropical Storm Tracking
New forecast layout! Learn more

10-Day Weather Forecast

Advertisements
Track Severe Weather on mobile